createdAt,value
2023-04-12T00:02:03.019Z,54.97
2023-04-12T00:04:34.478Z,55.06
2023-04-12T00:07:02.848Z,54.92
2023-04-12T00:09:32.059Z,54.63
2023-04-12T00:12:00.107Z,54.77
2023-04-12T00:14:28.017Z,54.67
2023-04-12T00:16:56.073Z,54.48
2023-04-12T00:19:25.876Z,54.45
2023-04-12T00:21:53.802Z,54.53
2023-04-12T00:24:21.695Z,54.70
2023-04-12T00:26:50.966Z,54.40
2023-04-12T00:29:18.883Z,54.55
2023-04-12T00:31:46.840Z,54.60
2023-04-12T00:34:14.776Z,54.82
2023-04-12T00:36:42.686Z,54.95
2023-04-12T00:39:10.767Z,54.69
2023-04-12T00:41:38.760Z,54.66
2023-04-12T00:44:08.194Z,54.45
2023-04-12T00:46:36.249Z,54.57
2023-04-12T00:49:04.196Z,54.46
2023-04-12T00:51:33.769Z,54.67
2023-04-12T00:54:02.239Z,54.84
2023-04-12T00:56:30.254Z,54.60
2023-04-12T00:58:58.256Z,54.28
2023-04-12T01:01:28.295Z,53.60
2023-04-12T01:04:01.150Z,54.65
2023-04-12T01:06:35.622Z,55.26
2023-04-12T01:09:06.092Z,56.17
2023-04-12T01:11:38.680Z,56.57
2023-04-12T01:14:09.123Z,57.14
2023-04-12T01:16:41.028Z,57.48
2023-04-12T01:19:19.842Z,57.99
2023-04-12T01:21:54.886Z,57.81
2023-04-12T01:24:29.093Z,58.15
2023-04-12T01:27:00.757Z,57.99
2023-04-12T01:29:30.245Z,57.99
2023-04-12T01:32:00.371Z,57.98
2023-04-12T01:34:29.669Z,57.98
2023-04-12T01:36:58.212Z,58.24
2023-04-12T01:39:26.440Z,58.38
2023-04-12T01:41:54.330Z,58.40
2023-04-12T01:44:22.262Z,58.56
2023-04-12T01:46:51.836Z,58.63
2023-04-12T01:49:19.739Z,58.96
2023-04-12T01:51:51.423Z,58.93
2023-04-12T01:54:21.322Z,59.38
2023-04-12T01:56:51.955Z,59.76
2023-04-12T01:59:20.075Z,60.06
2023-04-12T02:01:48.094Z,60.15
2023-04-12T02:04:17.508Z,60.30
2023-04-12T02:06:45.499Z,60.52
2023-04-12T02:09:13.434Z,60.63
2023-04-12T02:11:41.310Z,60.81
2023-04-12T02:14:10.186Z,61.05
2023-04-12T02:16:38.133Z,61.19
2023-04-12T02:19:08.981Z,61.21
2023-04-12T02:21:43.060Z,61.51
2023-04-12T02:24:11.335Z,61.52
2023-04-12T02:26:40.185Z,61.54
2023-04-12T02:29:09.121Z,61.88
2023-04-12T02:31:39.072Z,62.17
2023-04-12T02:34:07.122Z,62.57
2023-04-12T02:36:35.321Z,62.64
2023-04-12T02:39:05.176Z,62.58
2023-04-12T02:41:33.049Z,62.63
2023-04-12T02:44:01.155Z,63.06
2023-04-12T02:46:29.132Z,62.98
2023-04-12T02:48:57.085Z,63.04
2023-04-12T02:51:24.992Z,63.02
2023-04-12T02:53:52.852Z,62.97
2023-04-12T02:56:22.104Z,62.93
2023-04-12T02:58:50.014Z,62.74
2023-04-12T03:01:17.892Z,62.73
2023-04-12T03:03:45.836Z,62.73
2023-04-12T03:06:13.770Z,62.97
2023-04-12T03:08:41.660Z,63.00
2023-04-12T03:11:09.534Z,62.72
2023-04-12T03:13:38.813Z,62.52
2023-04-12T03:16:21.688Z,61.98
2023-04-12T03:18:50.222Z,61.47
2023-04-12T03:21:18.263Z,61.12
2023-04-12T03:23:46.371Z,60.77
2023-04-12T03:26:14.250Z,60.64
2023-04-12T03:28:45.913Z,60.49
2023-04-12T03:31:13.830Z,60.63
2023-04-12T03:33:41.709Z,60.45
2023-04-12T03:36:11.130Z,60.28
2023-04-12T03:38:38.970Z,60.23
2023-04-12T03:41:07.447Z,59.90
2023-04-12T03:43:36.137Z,59.76
2023-04-12T03:46:05.924Z,58.82
2023-04-12T03:48:33.855Z,59.05
2023-04-12T03:51:08.607Z,58.98
2023-04-12T03:53:37.056Z,58.57
2023-04-12T03:56:05.015Z,58.56
2023-04-12T03:58:34.039Z,58.40
2023-04-12T04:01:03.900Z,58.17
2023-04-12T04:03:35.071Z,57.72
2023-04-12T04:06:03.482Z,57.59
2023-04-12T04:08:32.620Z,57.72
2023-04-12T04:11:00.564Z,57.65
2023-04-12T04:13:28.444Z,57.30
2023-04-12T04:16:00.714Z,57.16
2023-04-12T04:18:28.601Z,57.14
2023-04-12T04:20:58.662Z,56.89
2023-04-12T04:23:27.802Z,56.05
2023-04-12T04:25:55.757Z,55.86
2023-04-12T04:28:23.625Z,55.82
2023-04-12T04:30:51.756Z,55.86
2023-04-12T04:33:20.097Z,55.58
2023-04-12T04:35:48.016Z,54.51
2023-04-12T04:38:17.347Z,54.78
2023-04-12T04:40:46.606Z,54.71
2023-04-12T04:43:18.608Z,52.76
2023-04-12T04:45:48.784Z,54.24
2023-04-12T04:48:18.780Z,55.59
2023-04-12T04:50:46.742Z,56.99
2023-04-12T04:53:14.645Z,57.06
2023-04-12T04:55:43.929Z,57.23
2023-04-12T04:58:12.788Z,57.57
2023-04-12T05:00:40.855Z,58.34
2023-04-12T05:03:08.750Z,58.06
2023-04-12T05:05:36.846Z,58.17
2023-04-12T05:08:04.872Z,58.28
2023-04-12T05:10:32.774Z,58.24
2023-04-12T05:13:02.028Z,58.35
2023-04-12T05:15:31.431Z,58.44
2023-04-12T05:17:59.378Z,58.29
2023-04-12T05:20:27.468Z,58.13
2023-04-12T05:22:55.766Z,58.10
2023-04-12T05:25:23.639Z,58.22
2023-04-12T05:27:52.281Z,58.16
2023-04-12T05:30:21.659Z,57.95
2023-04-12T05:32:49.549Z,58.09
2023-04-12T05:35:17.595Z,58.08
2023-04-12T05:37:45.534Z,58.16
2023-04-12T05:40:13.768Z,57.98
2023-04-12T05:42:41.645Z,57.81
2023-04-12T05:45:10.951Z,57.29
2023-04-12T05:47:40.268Z,56.75
2023-04-12T05:50:09.173Z,56.64
2023-04-12T05:52:37.929Z,56.99
2023-04-12T05:55:06.761Z,57.21
2023-04-12T05:57:34.651Z,57.79
2023-04-12T06:00:02.749Z,57.90
2023-04-12T06:02:30.900Z,57.95
2023-04-12T06:05:00.754Z,57.99
2023-04-12T06:07:28.797Z,58.13
2023-04-12T06:09:56.678Z,58.09
2023-04-12T06:12:24.600Z,58.23
2023-04-12T06:14:52.498Z,58.18
2023-04-12T06:17:20.458Z,58.10
2023-04-12T06:19:48.702Z,58.13
2023-04-12T06:22:18.133Z,58.15
2023-04-12T06:24:46.076Z,58.24
2023-04-12T06:27:13.939Z,57.90
2023-04-12T06:29:41.810Z,58.04
2023-04-12T06:32:09.642Z,57.89
2023-04-12T06:34:37.740Z,57.94
2023-04-12T06:37:05.656Z,57.77
2023-04-12T06:39:35.024Z,57.79
2023-04-12T06:42:02.928Z,57.94
2023-04-12T06:44:31.011Z,57.96
2023-04-12T06:46:59.200Z,58.32
2023-04-12T06:49:27.152Z,58.19
2023-04-12T06:51:55.094Z,58.04
2023-04-12T06:54:24.024Z,57.80
2023-04-12T06:56:53.320Z,57.88
2023-04-12T06:59:21.231Z,57.80
2023-04-12T07:01:49.189Z,58.00
2023-04-12T07:04:17.187Z,57.95
2023-04-12T07:06:45.168Z,57.58
2023-04-12T07:09:13.090Z,58.49
2023-04-12T07:11:41.198Z,58.93
2023-04-12T07:14:10.534Z,59.45
2023-04-12T07:16:38.752Z,60.55
2023-04-12T07:19:06.821Z,61.16
2023-04-12T07:21:34.682Z,61.24
2023-04-12T07:24:02.639Z,61.65
2023-04-12T07:26:31.445Z,61.92
2023-04-12T07:28:59.953Z,62.27
2023-04-12T07:31:30.606Z,62.93
2023-04-12T07:33:58.628Z,63.14
2023-04-12T07:36:27.570Z,63.16
2023-04-12T07:38:56.574Z,62.93
2023-04-12T07:41:24.971Z,62.61
2023-04-12T07:43:52.824Z,62.44
2023-04-12T07:46:21.088Z,62.39
2023-04-12T07:48:50.500Z,62.55
2023-04-12T07:51:18.598Z,60.80
2023-04-12T07:53:48.428Z,59.87
2023-04-12T07:56:16.456Z,59.70
2023-04-12T07:58:44.412Z,59.63
2023-04-12T08:01:13.217Z,59.29
2023-04-12T08:03:41.442Z,58.83
2023-04-12T08:06:11.161Z,58.52
2023-04-12T08:08:39.280Z,58.35
2023-04-12T08:11:07.423Z,58.26
2023-04-12T08:13:35.550Z,58.39
2023-04-12T08:16:03.490Z,58.30
2023-04-12T08:18:31.414Z,58.57
2023-04-12T08:20:59.420Z,59.18
2023-04-12T08:23:28.934Z,59.98
2023-04-12T08:26:03.274Z,60.02
2023-04-12T08:28:31.376Z,60.44
2023-04-12T08:30:59.794Z,61.04
2023-04-12T08:33:27.930Z,61.63
2023-04-12T08:35:56.712Z,62.27
2023-04-12T08:38:37.244Z,62.54
2023-04-12T08:41:14.749Z,62.82
2023-04-12T08:43:44.360Z,62.80
2023-04-12T08:46:13.756Z,62.42
2023-04-12T08:48:42.111Z,62.14
2023-04-12T08:51:10.239Z,62.71
2023-04-12T08:53:38.217Z,62.88
2023-04-12T08:56:08.328Z,63.08
2023-04-12T08:58:37.672Z,63.45
2023-04-12T09:01:05.965Z,63.50
2023-04-12T09:03:34.734Z,63.69
2023-04-12T09:06:04.073Z,63.68
2023-04-12T09:08:31.951Z,63.67
2023-04-12T09:10:59.854Z,63.61
2023-04-12T09:13:34.687Z,63.30
2023-04-12T09:16:04.066Z,62.96
2023-04-12T09:18:37.269Z,62.59
2023-04-12T09:21:08.628Z,62.15
2023-04-12T09:23:37.390Z,61.36
2023-04-12T09:26:06.825Z,61.19
2023-04-12T09:28:34.909Z,60.63
2023-04-12T09:31:04.676Z,60.41
2023-04-12T09:33:36.659Z,60.31
2023-04-12T09:36:06.086Z,60.33
2023-04-12T09:38:36.875Z,59.99
2023-04-12T09:41:19.670Z,59.88
2023-04-12T09:43:48.794Z,60.22
2023-04-12T09:46:18.419Z,59.88
2023-04-12T09:48:50.294Z,60.10
2023-04-12T09:51:25.452Z,60.81
2023-04-12T09:53:53.586Z,60.84
2023-04-12T09:56:22.946Z,61.33
2023-04-12T09:58:52.331Z,61.56
2023-04-12T10:01:22.847Z,61.94
2023-04-12T10:03:51.736Z,62.60
2023-04-12T10:06:20.557Z,62.94
2023-04-12T10:08:48.454Z,63.20
2023-04-12T10:11:16.646Z,63.25
2023-04-12T10:13:44.709Z,63.07
2023-04-12T10:16:12.643Z,63.13
2023-04-12T10:18:42.430Z,63.28
2023-04-12T10:21:11.088Z,63.43
2023-04-12T10:23:38.981Z,63.08
2023-04-12T10:26:07.091Z,62.75
2023-04-12T10:28:35.043Z,61.90
2023-04-12T10:31:04.969Z,60.99
2023-04-12T10:33:32.862Z,60.00
2023-04-12T10:36:06.923Z,59.51
2023-04-12T10:38:46.394Z,59.22
2023-04-12T10:41:15.877Z,58.11
2023-04-12T10:43:44.057Z,58.15
2023-04-12T10:46:48.329Z,57.40
2023-04-12T10:49:17.229Z,56.51
2023-04-12T10:52:15.111Z,55.79
2023-04-12T10:54:43.077Z,55.76
2023-04-12T10:57:45.708Z,55.87
2023-04-12T11:00:14.922Z,55.35
2023-04-12T11:03:09.852Z,55.46
2023-04-12T11:06:06.456Z,55.56
2023-04-12T11:08:42.344Z,55.23
2023-04-12T11:11:19.839Z,54.46
2023-04-12T11:13:47.801Z,54.98
2023-04-12T11:16:16.253Z,53.52
2023-04-12T11:18:44.323Z,53.64
2023-04-12T11:21:12.402Z,54.18
2023-04-12T11:23:40.661Z,55.00
2023-04-12T11:26:11.256Z,56.38
2023-04-12T11:28:40.977Z,57.12
2023-04-12T11:31:08.913Z,59.11
2023-04-12T11:33:37.336Z,61.73
2023-04-12T11:36:07.185Z,63.53
2023-04-12T11:38:35.992Z,63.53
2023-04-12T11:41:03.894Z,65.52
2023-04-12T11:43:33.241Z,65.87
2023-04-12T11:46:01.205Z,65.13
2023-04-12T11:48:29.095Z,64.26
2023-04-12T11:51:10.395Z,62.68
2023-04-12T11:53:39.150Z,59.41
2023-04-12T11:56:08.285Z,58.41
2023-04-12T11:58:37.590Z,59.89
2023-04-12T12:01:05.880Z,59.00
2023-04-12T12:03:33.976Z,57.90
2023-04-12T12:06:02.177Z,57.90
2023-04-12T12:08:30.442Z,57.52
2023-04-12T12:11:07.190Z,56.71
2023-04-12T12:13:47.780Z,57.53
2023-04-12T12:16:15.877Z,56.89
2023-04-12T12:18:43.885Z,59.12
2023-04-12T12:21:12.543Z,59.58
2023-04-12T12:23:40.443Z,57.94
2023-04-12T12:26:19.005Z,57.71
2023-04-12T12:28:52.428Z,58.62
2023-04-12T12:31:21.164Z,56.87
2023-04-12T12:33:49.103Z,56.66
2023-04-12T12:36:19.730Z,57.33
2023-04-12T12:38:49.270Z,58.02
2023-04-12T12:41:18.346Z,58.47
2023-04-12T12:43:47.192Z,59.42
2023-04-12T12:46:17.676Z,58.95
2023-04-12T12:48:45.674Z,58.26
2023-04-12T12:51:13.841Z,57.78
2023-04-12T12:53:42.298Z,56.66
2023-04-12T12:56:11.125Z,56.22
2023-04-12T12:58:40.909Z,57.33
2023-04-12T13:01:09.208Z,58.16
2023-04-12T13:03:38.597Z,58.83
2023-04-12T13:06:07.567Z,59.67
2023-04-12T13:08:37.242Z,60.09
2023-04-12T13:11:05.663Z,59.84
2023-04-12T13:13:33.560Z,59.39
2023-04-12T13:16:01.449Z,58.78
2023-04-12T13:18:29.377Z,57.89
2023-04-12T13:20:58.633Z,58.15
2023-04-12T13:23:26.588Z,58.37
2023-04-12T13:25:54.529Z,58.24
2023-04-12T13:28:22.633Z,57.56
2023-04-12T13:30:54.646Z,57.27
2023-04-12T13:33:22.727Z,56.75
2023-04-12T13:35:50.750Z,55.96
2023-04-12T13:38:20.048Z,55.40
2023-04-12T13:40:48.179Z,54.66
2023-04-12T13:43:16.693Z,53.74
2023-04-12T13:45:44.938Z,53.96
2023-04-12T13:48:12.944Z,53.66
2023-04-12T13:50:41.151Z,52.49
2023-04-12T13:53:09.169Z,51.92
2023-04-12T13:55:38.616Z,51.38
2023-04-12T13:58:06.492Z,51.51
2023-04-12T14:00:34.520Z,50.75
2023-04-12T14:03:02.541Z,50.47
2023-04-12T14:05:30.712Z,50.98
2023-04-12T14:07:58.646Z,52.61
2023-04-12T14:10:26.529Z,53.54
2023-04-12T14:12:55.757Z,54.94
2023-04-12T14:15:26.674Z,55.55
2023-04-12T14:17:54.639Z,55.40
2023-04-12T14:20:23.863Z,55.65
2023-04-12T14:22:51.812Z,55.69
2023-04-12T14:25:19.882Z,56.00
2023-04-12T14:27:47.779Z,56.39
2023-04-12T14:30:18.949Z,56.80
2023-04-12T14:32:47.818Z,57.38
2023-04-12T14:35:15.918Z,57.59
2023-04-12T14:37:43.985Z,56.76
2023-04-12T14:40:12.505Z,57.60
2023-04-12T14:42:40.474Z,57.62
2023-04-12T14:45:09.806Z,58.16
2023-04-12T14:47:39.201Z,58.15
2023-04-12T14:50:08.320Z,57.98
2023-04-12T14:52:36.209Z,58.39
2023-04-12T14:55:04.890Z,58.92
2023-04-12T14:57:32.836Z,59.51
2023-04-12T15:00:01.358Z,60.11
2023-04-12T15:02:29.375Z,60.60
2023-04-12T15:04:59.180Z,60.94
2023-04-12T15:07:27.333Z,61.50
2023-04-12T15:09:57.417Z,61.69
2023-04-12T15:12:25.610Z,61.98
2023-04-12T15:14:53.940Z,62.24
2023-04-12T15:17:21.922Z,62.37
2023-04-12T15:19:50.238Z,62.26
2023-04-12T15:22:19.566Z,62.38
2023-04-12T15:24:47.496Z,62.70
2023-04-12T15:27:15.438Z,62.89
2023-04-12T15:29:43.315Z,63.26
2023-04-12T15:32:11.260Z,63.77
2023-04-12T15:34:39.160Z,64.19
2023-04-12T15:37:07.406Z,64.42
2023-04-12T15:39:36.868Z,64.57
2023-04-12T15:42:05.412Z,64.77
2023-04-12T15:44:33.965Z,64.72
2023-04-12T15:47:10.982Z,64.64
2023-04-12T15:49:39.943Z,64.56
2023-04-12T15:52:07.983Z,64.44
2023-04-12T15:54:43.784Z,64.53
2023-04-12T15:57:11.963Z,64.54
2023-04-12T15:59:41.949Z,64.51
2023-04-12T16:02:10.707Z,64.47
2023-04-12T16:04:39.392Z,64.56
2023-04-12T16:07:07.681Z,64.64
2023-04-12T16:09:39.729Z,64.29
2023-04-12T16:12:08.043Z,64.17
2023-04-12T16:14:36.922Z,64.11
2023-04-12T16:17:04.874Z,64.43
2023-04-12T16:19:33.410Z,64.25
2023-04-12T16:22:01.745Z,63.79
2023-04-12T16:24:29.761Z,63.42
2023-04-12T16:26:59.396Z,63.06
2023-04-12T16:29:27.243Z,62.57
2023-04-12T16:31:55.234Z,62.39
2023-04-12T16:34:23.298Z,62.40
2023-04-12T16:36:51.639Z,62.18
2023-04-12T16:39:19.555Z,61.92
2023-04-12T16:41:47.480Z,61.55
2023-04-12T16:44:19.440Z,60.94
2023-04-12T16:46:48.072Z,60.74
2023-04-12T16:49:19.036Z,60.49
2023-04-12T16:51:47.698Z,60.24
2023-04-12T16:54:15.651Z,60.20
2023-04-12T16:56:43.635Z,60.30
2023-04-12T16:59:11.590Z,60.40
2023-04-12T17:01:40.908Z,60.52
2023-04-12T17:04:08.911Z,60.36
2023-04-12T17:06:38.549Z,60.88
2023-04-12T17:09:07.473Z,60.74
2023-04-12T17:11:36.224Z,60.47
2023-04-12T17:14:04.188Z,60.02
2023-04-12T17:16:32.438Z,60.11
2023-04-12T17:19:01.807Z,60.40
2023-04-12T17:21:30.531Z,60.25
2023-04-12T17:23:58.618Z,60.61
2023-04-12T17:26:27.898Z,60.94
2023-04-12T17:28:56.809Z,61.19
2023-04-12T17:31:27.044Z,61.19
2023-04-12T17:33:55.049Z,61.45
2023-04-12T17:36:24.451Z,61.48
2023-04-12T17:38:52.539Z,61.91
2023-04-12T17:41:21.474Z,62.05
2023-04-12T17:43:49.389Z,62.24
2023-04-12T17:46:18.063Z,62.32
2023-04-12T17:48:45.992Z,62.40
2023-04-12T17:51:16.122Z,62.46
2023-04-12T17:53:45.760Z,62.40
2023-04-12T17:56:13.674Z,62.15
2023-04-12T17:58:41.773Z,62.14
2023-04-12T18:01:09.763Z,61.96
2023-04-12T18:03:38.416Z,61.76
2023-04-12T18:06:06.992Z,61.34
2023-04-12T18:08:37.530Z,61.08
2023-04-12T18:11:08.036Z,60.73
2023-04-12T18:13:35.929Z,59.64
2023-04-12T18:16:04.113Z,58.68
2023-04-12T18:18:32.046Z,57.88
2023-04-12T18:20:59.941Z,57.36
2023-04-12T18:23:27.790Z,57.14
2023-04-12T18:25:55.725Z,56.52
2023-04-12T18:28:25.412Z,56.18
2023-04-12T18:30:55.524Z,55.55
2023-04-12T18:33:24.716Z,54.69
2023-04-12T18:35:53.049Z,54.43
2023-04-12T18:38:20.954Z,54.29
2023-04-12T18:40:48.806Z,53.98
2023-04-12T18:43:16.845Z,53.51
2023-04-12T18:45:46.160Z,53.52
2023-04-12T18:48:14.402Z,53.48
2023-04-12T18:50:42.296Z,53.08
2023-04-12T18:53:10.681Z,53.15
2023-04-12T18:55:38.556Z,53.04
2023-04-12T18:58:07.105Z,52.82
2023-04-12T19:00:35.008Z,52.37
2023-04-12T19:03:04.402Z,52.17
2023-04-12T19:05:32.430Z,52.29
2023-04-12T19:08:01.559Z,52.29
2023-04-12T19:10:30.875Z,52.13
2023-04-12T19:12:58.938Z,51.95
2023-04-12T19:15:27.137Z,52.19
2023-04-12T19:17:55.116Z,51.96
2023-04-12T19:20:24.926Z,51.83
2023-04-12T19:22:53.146Z,51.45
2023-04-12T19:25:22.252Z,50.58
2023-04-12T19:27:50.198Z,50.71
2023-04-12T19:30:18.400Z,50.59
2023-04-12T19:32:46.459Z,50.42
2023-04-12T19:35:14.479Z,49.98
2023-04-12T19:37:43.764Z,50.23
2023-04-12T19:40:12.461Z,49.67
2023-04-12T19:42:41.618Z,50.08
2023-04-12T19:45:10.655Z,50.05
2023-04-12T19:47:44.661Z,49.54
2023-04-12T19:50:13.801Z,49.39
2023-04-12T19:52:43.263Z,49.52
2023-04-12T19:55:11.540Z,49.33
2023-04-12T19:57:39.615Z,49.76
2023-04-12T20:00:12.780Z,49.89
2023-04-12T20:02:41.449Z,50.16
2023-04-12T20:05:09.935Z,50.24
2023-04-12T20:07:38.136Z,50.47
2023-04-12T20:10:10.334Z,50.45
2023-04-12T20:12:39.011Z,50.64
2023-04-12T20:15:08.277Z,51.04
2023-04-12T20:17:36.323Z,51.19
2023-04-12T20:20:08.754Z,51.29
2023-04-12T20:22:36.771Z,51.36
2023-04-12T20:25:05.772Z,51.53
2023-04-12T20:27:36.701Z,51.77
2023-04-12T20:30:05.209Z,51.94
2023-04-12T20:32:33.676Z,51.75
2023-04-12T20:35:02.706Z,51.93
2023-04-12T20:37:30.631Z,51.76
2023-04-12T20:39:59.338Z,52.02
2023-04-12T20:42:27.272Z,51.77
2023-04-12T20:44:56.532Z,51.20
2023-04-12T20:47:26.003Z,51.20
2023-04-12T20:49:56.140Z,50.85
2023-04-12T20:52:27.656Z,50.55
2023-04-12T20:54:57.151Z,50.18
2023-04-12T20:57:25.649Z,50.04
2023-04-12T20:59:53.571Z,50.15
2023-04-12T21:02:23.247Z,50.09
2023-04-12T21:04:51.511Z,50.22
2023-04-12T21:07:21.233Z,50.71
2023-04-12T21:09:49.668Z,50.50
2023-04-12T21:12:18.256Z,50.52
2023-04-12T21:14:50.066Z,49.75
2023-04-12T21:17:22.239Z,49.42
2023-04-12T21:19:52.129Z,49.58
2023-04-12T21:22:20.002Z,50.25
2023-04-12T21:24:47.977Z,50.67
2023-04-12T21:27:15.870Z,50.84
2023-04-12T21:29:44.767Z,50.40
2023-04-12T21:32:12.696Z,50.13
2023-04-12T21:34:40.538Z,50.46
2023-04-12T21:37:09.805Z,50.54
2023-04-12T21:39:39.178Z,50.32
2023-04-12T21:42:07.471Z,50.38
2023-04-12T21:44:35.827Z,50.48
2023-04-12T21:47:03.775Z,50.79
2023-04-12T21:49:31.709Z,50.96
2023-04-12T21:51:59.617Z,51.06
2023-04-12T21:54:31.318Z,50.45
2023-04-12T21:56:59.274Z,50.45
2023-04-12T21:59:27.417Z,50.57
2023-04-12T22:01:55.419Z,50.53
2023-04-12T22:04:23.411Z,50.25
2023-04-12T22:06:51.635Z,50.38
2023-04-12T22:09:20.337Z,50.59
2023-04-12T22:11:50.286Z,50.31
2023-04-12T22:14:18.166Z,50.22
2023-04-12T22:16:46.843Z,50.14
2023-04-12T22:19:15.435Z,50.24
2023-04-12T22:21:43.364Z,49.89
2023-04-12T22:24:12.228Z,50.15
2023-04-12T22:26:40.078Z,49.81
2023-04-12T22:29:09.858Z,50.06
2023-04-12T22:31:38.524Z,50.63
2023-04-12T22:34:06.482Z,50.93
2023-04-12T22:36:37.541Z,50.61
2023-04-12T22:39:05.901Z,50.46
2023-04-12T22:41:34.051Z,50.62
2023-04-12T22:44:02.173Z,51.00
2023-04-12T22:46:32.260Z,50.99
2023-04-12T22:49:00.486Z,50.84
2023-04-12T22:51:28.462Z,50.84
2023-04-12T22:53:56.883Z,50.49
2023-04-12T22:56:25.528Z,50.69
2023-04-12T22:58:53.815Z,50.43
2023-04-12T23:01:21.744Z,50.58
2023-04-12T23:03:51.775Z,50.17
2023-04-12T23:06:20.625Z,50.06
2023-04-12T23:08:49.655Z,50.21
2023-04-12T23:11:17.886Z,50.18
2023-04-12T23:13:45.895Z,50.08
2023-04-12T23:16:13.835Z,50.01
2023-04-12T23:18:41.738Z,50.22
2023-04-12T23:21:12.208Z,50.06
2023-04-12T23:23:40.640Z,50.10
2023-04-12T23:26:10.012Z,50.10
2023-04-12T23:28:40.320Z,50.36
2023-04-12T23:31:08.471Z,50.56
2023-04-12T23:33:36.384Z,50.71
2023-04-12T23:36:05.153Z,50.84
2023-04-12T23:38:34.696Z,50.76
2023-04-12T23:41:04.005Z,50.59
2023-04-12T23:43:32.972Z,50.67
2023-04-12T23:46:00.976Z,50.96
2023-04-12T23:48:29.084Z,51.21
2023-04-12T23:50:56.966Z,51.00
2023-04-12T23:53:24.989Z,50.71
2023-04-12T23:55:54.377Z,50.69
2023-04-12T23:58:22.543Z,50.96
